sensor_id;sensor_type;location;lat;lon;timestamp;pressure;altitude;pressure_sealevel;temperature;humidity
13800;BME280;6971;50.028;9.258;2023-03-05T00:03:05;99701.09;;;1.76;100.00
13800;BME280;6971;50.028;9.258;2023-03-05T00:08:06;99702.00;;;1.73;100.00
13800;BME280;6971;50.028;9.258;2023-03-05T00:13:06;99704.56;;;1.75;100.00
13800;BME280;6971;50.028;9.258;2023-03-05T00:18:07;99707.28;;;1.65;100.00
13800;BME280;6971;50.028;9.258;2023-03-05T00:23:07;99692.47;;;1.74;100.00
13800;BME280;6971;50.028;9.258;2023-03-05T00:28:08;99689.91;;;1.69;100.00
13800;BME280;6971;50.028;9.258;2023-03-05T00:33:09;99687.41;;;1.63;100.00
13800;BME280;6971;50.028;9.258;2023-03-05T00:38:12;99689.00;;;1.72;100.00
13800;BME280;6971;50.028;9.258;2023-03-05T00:43:12;99686.41;;;1.72;100.00
13800;BME280;6971;50.028;9.258;2023-03-05T00:48:15;99687.34;;;1.66;100.00
13800;BME280;6971;50.028;9.258;2023-03-05T00:53:15;99678.69;;;1.67;100.00
13800;BME280;6971;50.028;9.258;2023-03-05T00:58:15;99683.00;;;1.69;100.00
13800;BME280;6971;50.028;9.258;2023-03-05T01:03:17;99667.56;;;1.57;100.00
13800;BME280;6971;50.028;9.258;2023-03-05T01:08:18;99665.66;;;1.68;100.00
13800;BME280;6971;50.028;9.258;2023-03-05T01:13:19;99660.53;;;1.65;100.00
13800;BME280;6971;50.028;9.258;2023-03-05T01:18:19;99652.75;;;1.62;100.00
13800;BME280;6971;50.028;9.258;2023-03-05T01:23:19;99658.88;;;1.58;100.00
13800;BME280;6971;50.028;9.258;2023-03-05T01:28:20;99648.59;;;1.52;100.00
13800;BME280;6971;50.028;9.258;2023-03-05T01:33:20;99646.84;;;1.51;100.00
13800;BME280;6971;50.028;9.258;2023-03-05T01:38:20;99635.56;;;1.53;100.00
13800;BME280;6971;50.028;9.258;2023-03-05T01:43:27;99637.44;;;1.42;100.00
13800;BME280;6971;50.028;9.258;2023-03-05T01:48:27;99628.00;;;1.36;100.00
13800;BME280;6971;50.028;9.258;2023-03-05T01:53:28;99623.72;;;1.32;100.00
13800;BME280;6971;50.028;9.258;2023-03-05T01:58:29;99619.38;;;1.34;100.00
13800;BME280;6971;50.028;9.258;2023-03-05T02:03:30;99618.56;;;1.29;100.00
13800;BME280;6971;50.028;9.258;2023-03-05T02:08:31;99613.44;;;1.23;100.00
13800;BME280;6971;50.028;9.258;2023-03-05T02:13:33;99620.34;;;1.25;100.00
13800;BME280;6971;50.028;9.258;2023-03-05T02:18:39;99610.06;;;1.14;100.00
13800;BME280;6971;50.028;9.258;2023-03-05T02:23:40;99602.16;;;1.24;100.00
13800;BME280;6971;50.028;9.258;2023-03-05T02:28:48;99605.66;;;1.21;100.00
13800;BME280;6971;50.028;9.258;2023-03-05T02:33:51;99596.91;;;1.30;100.00
13800;BME280;6971;50.028;9.258;2023-03-05T02:38:53;99592.69;;;1.21;100.00
13800;BME280;6971;50.028;9.258;2023-03-05T02:43:56;99585.78;;;1.20;100.00
13800;BME280;6971;50.028;9.258;2023-03-05T02:48:56;99584.06;;;1.19;100.00
13800;BME280;6971;50.028;9.258;2023-03-05T02:53:56;99587.56;;;1.16;100.00
13800;BME280;6971;50.028;9.258;2023-03-05T02:58:57;99575.50;;;1.11;100.00
13800;BME280;6971;50.028;9.258;2023-03-05T03:04:03;99566.06;;;1.05;100.00
13800;BME280;6971;50.028;9.258;2023-03-05T03:09:04;99567.72;;;1.11;100.00
13800;BME280;6971;50.028;9.258;2023-03-05T03:14:04;99567.88;;;1.00;100.00
13800;BME280;6971;50.028;9.258;2023-03-05T03:19:04;99561.00;;;0.96;100.00
13800;BME280;6971;50.028;9.258;2023-03-05T03:24:05;99564.38;;;1.01;100.00
13800;BME280;6971;50.028;9.258;2023-03-05T03:29:06;99554.84;;;1.04;100.00
13800;BME280;6971;50.028;9.258;2023-03-05T03:34:06;99545.28;;;1.05;100.00
13800;BME280;6971;50.028;9.258;2023-03-05T03:39:06;99551.41;;;0.99;100.00
13800;BME280;6971;50.028;9.258;2023-03-05T03:44:09;99547.22;;;0.89;100.00
13800;BME280;6971;50.028;9.258;2023-03-05T03:49:16;99539.31;;;1.00;100.00
13800;BME280;6971;50.028;9.258;2023-03-05T03:54:17;99531.41;;;1.09;100.00
13800;BME280;6971;50.028;9.258;2023-03-05T03:59:18;99534.88;;;1.08;100.00
13800;BME280;6971;50.028;9.258;2023-03-05T04:04:19;99528.78;;;1.11;100.00
13800;BME280;6971;50.028;9.258;2023-03-05T04:09:19;99529.66;;;1.11;100.00
13800;BME280;6971;50.028;9.258;2023-03-05T04:14:20;99514.13;;;1.08;100.00
13800;BME280;6971;50.028;9.258;2023-03-05T04:19:20;99519.31;;;1.07;100.00
13800;BME280;6971;50.028;9.258;2023-03-05T04:24:21;99521.16;;;0.97;100.00
13800;BME280;6971;50.028;9.258;2023-03-05T04:29:21;99503.72;;;1.10;100.00
13800;BME280;6971;50.028;9.258;2023-03-05T04:34:24;99509.81;;;1.07;100.00
13800;BME280;6971;50.028;9.258;2023-03-05T04:39:25;99510.78;;;0.97;100.00
13800;BME280;6971;50.028;9.258;2023-03-05T04:44:25;99511.63;;;1.00;100.00
13800;BME280;6971;50.028;9.258;2023-03-05T04:49:26;99511.53;;;1.07;100.00
13800;BME280;6971;50.028;9.258;2023-03-05T04:54:26;99508.78;;;1.17;100.00
13800;BME280;6971;50.028;9.258;2023-03-05T04:59:27;99511.19;;;1.32;100.00
13800;BME280;6971;50.028;9.258;2023-03-05T05:04:30;99518.91;;;1.36;100.00
13800;BME280;6971;50.028;9.258;2023-03-05T05:09:31;99511.97;;;1.38;100.00
13800;BME280;6971;50.028;9.258;2023-03-05T05:14:33;99504.06;;;1.46;100.00
13800;BME280;6971;50.028;9.258;2023-03-05T05:19:34;99510.16;;;1.42;100.00
13800;BME280;6971;50.028;9.258;2023-03-05T05:24:34;99498.09;;;1.39;96.70
13800;BME280;6971;50.028;9.258;2023-03-05T05:29:34;99502.41;;;1.40;96.70
13800;BME280;6971;50.028;9.258;2023-03-05T05:34:35;99499.75;;;1.43;95.31
13800;BME280;6971;50.028;9.258;2023-03-05T05:39:35;99499.06;;;1.30;99.19
13800;BME280;6971;50.028;9.258;2023-03-05T05:44:35;99501.66;;;1.32;96.32
13800;BME280;6971;50.028;9.258;2023-03-05T05:49:36;99499.13;;;1.29;95.48
13800;BME280;6971;50.028;9.258;2023-03-05T05:54:37;99496.47;;;1.30;91.78
13800;BME280;6971;50.028;9.258;2023-03-05T05:59:38;99495.69;;;1.25;90.18
13800;BME280;6971;50.028;9.258;2023-03-05T06:04:38;99495.66;;;1.27;91.17
13800;BME280;6971;50.028;9.258;2023-03-05T06:09:39;99492.16;;;1.29;92.45
13800;BME280;6971;50.028;9.258;2023-03-05T06:14:42;99489.66;;;1.25;90.57
13800;BME280;6971;50.028;9.258;2023-03-05T06:19:42;99493.03;;;1.30;90.09
13800;BME280;6971;50.028;9.258;2023-03-05T06:24:42;99490.34;;;1.36;90.39
13800;BME280;6971;50.028;9.258;2023-03-05T06:29:43;99479.34;;;1.17;93.94
13800;BME280;6971;50.028;9.258;2023-03-05T06:34:43;99481.78;;;1.28;92.27
13800;BME280;6971;50.028;9.258;2023-03-05T06:39:44;99479.41;;;1.15;92.78
13800;BME280;6971;50.028;9.258;2023-03-05T06:44:45;99490.44;;;1.32;89.68
13800;BME280;6971;50.028;9.258;2023-03-05T06:49:46;99494.75;;;1.31;89.90
13800;BME280;6971;50.028;9.258;2023-03-05T06:54:48;99484.34;;;1.33;91.87
13800;BME280;6971;50.028;9.258;2023-03-05T06:59:49;99481.09;;;1.18;95.36
13800;BME280;6971;50.028;9.258;2023-03-05T07:04:49;99479.13;;;1.34;93.75
13800;BME280;6971;50.028;9.258;2023-03-05T07:09:49;99480.97;;;1.27;96.54
13800;BME280;6971;50.028;9.258;2023-03-05T07:14:52;99473.03;;;1.35;95.82
13800;BME280;6971;50.028;9.258;2023-03-05T07:19:52;99477.47;;;1.30;93.73
13800;BME280;6971;50.028;9.258;2023-03-05T07:24:52;99474.78;;;1.35;100.00
13800;BME280;6971;50.028;9.258;2023-03-05T07:29:53;99477.41;;;1.33;100.00
13800;BME280;6971;50.028;9.258;2023-03-05T07:34:53;99480.97;;;1.26;100.00
13800;BME280;6971;50.028;9.258;2023-03-05T07:39:53;99473.16;;;1.29;100.00
13800;BME280;6971;50.028;9.258;2023-03-05T07:44:54;99473.94;;;1.33;100.00
13800;BME280;6971;50.028;9.258;2023-03-05T07:49:54;99472.78;;;1.52;100.00
13800;BME280;6971;50.028;9.258;2023-03-05T07:54:54;99477.94;;;1.54;100.00
13800;BME280;6971;50.028;9.258;2023-03-05T07:59:55;99471.03;;;1.53;100.00
13800;BME280;6971;50.028;9.258;2023-03-05T08:04:55;99477.72;;;1.68;100.00
13800;BME280;6971;50.028;9.258;2023-03-05T08:09:56;99466.72;;;1.53;98.52
13800;BME280;6971;50.028;9.258;2023-03-05T08:14:56;99471.72;;;1.64;95.50
13800;BME280;6971;50.028;9.258;2023-03-05T08:19:59;99455.88;;;1.80;90.43
13800;BME280;6971;50.028;9.258;2023-03-05T08:25:05;99459.03;;;1.98;87.91
13800;BME280;6971;50.028;9.258;2023-03-05T08:30:10;99453.94;;;1.91;85.35
13800;BME280;6971;50.028;9.258;2023-03-05T08:35:11;99455.28;;;2.13;84.54
13800;BME280;6971;50.028;9.258;2023-03-05T08:40:11;99456.78;;;2.25;83.48
13800;BME280;6971;50.028;9.258;2023-03-05T08:45:12;99454.22;;;2.23;82.84
13800;BME280;6971;50.028;9.258;2023-03-05T08:50:13;99451.53;;;2.28;83.97
13800;BME280;6971;50.028;9.258;2023-03-05T08:55:13;99452.47;;;2.25;83.26
13800;BME280;6971;50.028;9.258;2023-03-05T09:00:13;99451.16;;;2.46;82.54
13800;BME280;6971;50.028;9.258;2023-03-05T09:05:14;99446.19;;;2.34;80.01
13800;BME280;6971;50.028;9.258;2023-03-05T09:10:15;99444.38;;;2.39;81.15
13800;BME280;6971;50.028;9.258;2023-03-05T09:15:17;99434.47;;;2.57;82.28
13800;BME280;6971;50.028;9.258;2023-03-05T09:20:17;99440.47;;;2.60;81.91
13800;BME280;6971;50.028;9.258;2023-03-05T09:25:18;99426.41;;;2.69;81.67
13800;BME280;6971;50.028;9.258;2023-03-05T09:30:19;99434.47;;;2.57;82.82
13800;BME280;6971;50.028;9.258;2023-03-05T09:35:19;99422.97;;;2.69;83.12
13800;BME280;6971;50.028;9.258;2023-03-05T09:40:20;99417.53;;;2.80;82.65
13800;BME280;6971;50.028;9.258;2023-03-05T09:51:01;99425.16;;;2.87;83.71
13800;BME280;6971;50.028;9.258;2023-03-05T09:56:09;99414.81;;;2.84;83.71
13800;BME280;6971;50.028;9.258;2023-03-05T10:06:21;99407.28;;;3.10;82.07
13800;BME280;6971;50.028;9.258;2023-03-05T10:22:22;99382.00;;;3.15;77.87
13800;BME280;6971;50.028;9.258;2023-03-05T10:27:49;99379.44;;;3.13;76.94
13800;BME280;6971;50.028;9.258;2023-03-05T10:33:10;99377.41;;;3.25;77.57
13800;BME280;6971;50.028;9.258;2023-03-05T10:43:52;99373.09;;;3.24;77.12
13800;BME280;6971;50.028;9.258;2023-03-05T10:48:58;99367.94;;;3.57;77.37
13800;BME280;6971;50.028;9.258;2023-03-05T10:54:10;99354.09;;;3.53;76.16
13800;BME280;6971;50.028;9.258;2023-03-05T10:59:15;99364.47;;;3.57;76.00
13800;BME280;6971;50.028;9.258;2023-03-05T11:04:27;99351.25;;;3.63;75.89
13800;BME280;6971;50.028;9.258;2023-03-05T11:09:29;99348.00;;;3.55;76.40
13800;BME280;6971;50.028;9.258;2023-03-05T11:14:31;99342.88;;;3.51;74.60
13800;BME280;6971;50.028;9.258;2023-03-05T11:19:32;99331.06;;;3.71;74.64
13800;BME280;6971;50.028;9.258;2023-03-05T11:24:33;99333.50;;;3.77;73.66
13800;BME280;6971;50.028;9.258;2023-03-05T11:29:34;99329.53;;;3.96;72.95
13800;BME280;6971;50.028;9.258;2023-03-05T11:34:45;99333.91;;;3.95;71.01
13800;BME280;6971;50.028;9.258;2023-03-05T11:39:46;99320.84;;;3.95;71.51
13800;BME280;6971;50.028;9.258;2023-03-05T11:44:49;99307.25;;;3.84;71.47
13800;BME280;6971;50.028;9.258;2023-03-05T11:49:59;99301.63;;;3.99;71.66
13800;BME280;6971;50.028;9.258;2023-03-05T11:55:15;99301.44;;;3.74;70.32
13800;BME280;6971;50.028;9.258;2023-03-05T12:00:22;99286.94;;;3.65;68.77
13800;BME280;6971;50.028;9.258;2023-03-05T12:05:26;99283.44;;;3.64;67.83
13800;BME280;6971;50.028;9.258;2023-03-05T12:10:27;99269.22;;;3.76;67.68
13800;BME280;6971;50.028;9.258;2023-03-05T12:15:37;99264.38;;;3.94;67.99
13800;BME280;6971;50.028;9.258;2023-03-05T12:21:13;99260.22;;;3.88;67.34
13800;BME280;6971;50.028;9.258;2023-03-05T12:26:14;99251.72;;;3.82;67.03
13800;BME280;6971;50.028;9.258;2023-03-05T12:31:43;99239.19;;;3.93;67.02
13800;BME280;6971;50.028;9.258;2023-03-05T12:36:47;99237.25;;;4.00;66.75
13800;BME280;6971;50.028;9.258;2023-03-05T12:41:48;99227.81;;;3.96;67.54
13800;BME280;6971;50.028;9.258;2023-03-05T12:52:25;99221.31;;;3.81;66.81
13800;BME280;6971;50.028;9.258;2023-03-05T12:57:25;99214.59;;;3.73;68.56
13800;BME280;6971;50.028;9.258;2023-03-05T13:02:35;99202.59;;;3.96;68.69
13800;BME280;6971;50.028;9.258;2023-03-05T13:07:37;99210.72;;;4.15;68.59
13800;BME280;6971;50.028;9.258;2023-03-05T13:12:38;99207.81;;;4.25;67.76
13800;BME280;6971;50.028;9.258;2023-03-05T13:17:41;99194.16;;;3.88;66.87
13800;BME280;6971;50.028;9.258;2023-03-05T13:28:15;99184.84;;;4.08;67.38
13800;BME280;6971;50.028;9.258;2023-03-05T13:33:28;99177.38;;;3.97;66.56
13800;BME280;6971;50.028;9.258;2023-03-05T13:38:39;99167.03;;;4.22;66.45
13800;BME280;6971;50.028;9.258;2023-03-05T13:43:59;99167.81;;;4.24;65.70
13800;BME280;6971;50.028;9.258;2023-03-05T13:54:26;99152.72;;;4.07;66.61
13800;BME280;6971;50.028;9.258;2023-03-05T13:59:30;99143.13;;;4.08;68.07
13800;BME280;6971;50.028;9.258;2023-03-05T14:04:43;99142.09;;;3.85;68.84
13800;BME280;6971;50.028;9.258;2023-03-05T14:09:46;99134.75;;;3.98;66.95
13800;BME280;6971;50.028;9.258;2023-03-05T14:14:47;99128.50;;;3.75;69.05
13800;BME280;6971;50.028;9.258;2023-03-05T14:19:49;99112.63;;;3.83;69.41
13800;BME280;6971;50.028;9.258;2023-03-05T14:24:52;99109.38;;;4.03;67.92
13800;BME280;6971;50.028;9.258;2023-03-05T14:29:52;99108.69;;;3.98;68.50
13800;BME280;6971;50.028;9.258;2023-03-05T14:34:57;99107.50;;;3.79;68.94
13800;BME280;6971;50.028;9.258;2023-03-05T14:45:15;99095.09;;;3.88;68.86
13800;BME280;6971;50.028;9.258;2023-03-05T14:50:43;99089.22;;;3.81;68.17
13800;BME280;6971;50.028;9.258;2023-03-05T14:55:46;99075.78;;;3.67;68.99
13800;BME280;6971;50.028;9.258;2023-03-05T15:00:49;99066.94;;;3.71;69.50
13800;BME280;6971;50.028;9.258;2023-03-05T15:05:51;99054.06;;;3.66;69.57
13800;BME280;6971;50.028;9.258;2023-03-05T15:10:52;99049.72;;;3.67;68.84
13800;BME280;6971;50.028;9.258;2023-03-05T15:15:53;99052.44;;;3.62;69.55
13800;BME280;6971;50.028;9.258;2023-03-05T15:20:55;99040.78;;;3.74;69.59
13800;BME280;6971;50.028;9.258;2023-03-05T15:25:56;99033.78;;;3.76;69.18
13800;BME280;6971;50.028;9.258;2023-03-05T15:30:56;99022.22;;;3.83;67.72
13800;BME280;6971;50.028;9.258;2023-03-05T15:35:57;99019.16;;;3.70;69.57
13800;BME280;6971;50.028;9.258;2023-03-05T15:40:57;99023.38;;;3.47;68.14
13800;BME280;6971;50.028;9.258;2023-03-05T15:45:58;99014.44;;;3.55;67.94
13800;BME280;6971;50.028;9.258;2023-03-05T15:51:01;99013.69;;;3.51;68.59
13800;BME280;6971;50.028;9.258;2023-03-05T15:56:05;99005.97;;;3.48;69.31
13800;BME280;6971;50.028;9.258;2023-03-05T16:01:10;98993.78;;;3.48;68.84
13800;BME280;6971;50.028;9.258;2023-03-05T16:06:11;98990.28;;;3.49;69.02
13800;BME280;6971;50.028;9.258;2023-03-05T16:11:13;98980.16;;;3.40;69.63
13800;BME280;6971;50.028;9.258;2023-03-05T16:16:13;98978.38;;;3.42;69.39
13800;BME280;6971;50.028;9.258;2023-03-05T16:21:14;98984.88;;;3.29;69.47
13800;BME280;6971;50.028;9.258;2023-03-05T16:26:24;98981.34;;;3.30;70.34
13800;BME280;6971;50.028;9.258;2023-03-05T16:31:28;98971.31;;;3.17;70.04
13800;BME280;6971;50.028;9.258;2023-03-05T16:36:30;98972.09;;;3.19;69.90
13800;BME280;6971;50.028;9.258;2023-03-05T16:41:34;98965.19;;;3.18;70.42
13800;BME280;6971;50.028;9.258;2023-03-05T16:46:34;98963.41;;;3.20;70.29
13800;BME280;6971;50.028;9.258;2023-03-05T16:51:35;98967.31;;;3.07;71.36
13800;BME280;6971;50.028;9.258;2023-03-05T16:56:35;98963.75;;;3.09;71.16
13800;BME280;6971;50.028;9.258;2023-03-05T17:01:36;98962.19;;;3.04;71.91
13800;BME280;6971;50.028;9.258;2023-03-05T17:06:36;98958.75;;;3.02;71.90
13800;BME280;6971;50.028;9.258;2023-03-05T17:11:37;98964.16;;;2.95;71.88
13800;BME280;6971;50.028;9.258;2023-03-05T17:16:38;98964.25;;;2.92;72.26
13800;BME280;6971;50.028;9.258;2023-03-05T17:21:38;98965.34;;;2.85;73.48
13800;BME280;6971;50.028;9.258;2023-03-05T17:26:39;98971.22;;;2.61;77.17
13800;BME280;6971;50.028;9.258;2023-03-05T17:31:39;98972.69;;;2.40;80.26
13800;BME280;6971;50.028;9.258;2023-03-05T17:36:40;98961.16;;;2.49;81.37
13800;BME280;6971;50.028;9.258;2023-03-05T17:41:40;98965.41;;;2.52;80.97
13800;BME280;6971;50.028;9.258;2023-03-05T17:46:40;98960.63;;;2.38;82.96
13800;BME280;6971;50.028;9.258;2023-03-05T17:51:41;98958.13;;;2.33;83.61
13800;BME280;6971;50.028;9.258;2023-03-05T17:56:41;98958.13;;;2.33;84.47
13800;BME280;6971;50.028;9.258;2023-03-05T18:01:42;98959.53;;;2.13;86.00
13800;BME280;6971;50.028;9.258;2023-03-05T18:06:42;98955.25;;;2.11;86.75
13800;BME280;6971;50.028;9.258;2023-03-05T18:11:45;98953.69;;;2.05;87.09
13800;BME280;6971;50.028;9.258;2023-03-05T18:16:45;98945.19;;;1.98;87.81
13800;BME280;6971;50.028;9.258;2023-03-05T18:21:46;98938.47;;;1.89;88.46
13800;BME280;6971;50.028;9.258;2023-03-05T18:26:46;98942.78;;;1.90;87.14
13800;BME280;6971;50.028;9.258;2023-03-05T18:31:47;98930.44;;;1.99;88.45
13800;BME280;6971;50.028;9.258;2023-03-05T18:36:47;98923.53;;;1.98;90.27
13800;BME280;6971;50.028;9.258;2023-03-05T18:41:47;98925.34;;;1.95;91.13
13800;BME280;6971;50.028;9.258;2023-03-05T18:46:48;98917.66;;;1.91;92.11
13800;BME280;6971;50.028;9.258;2023-03-05T18:51:48;98917.81;;;1.85;94.21
13800;BME280;6971;50.028;9.258;2023-03-05T18:56:48;98915.25;;;1.83;94.51
13800;BME280;6971;50.028;9.258;2023-03-05T19:01:49;98915.50;;;1.74;96.24
13800;BME280;6971;50.028;9.258;2023-03-05T19:06:49;98917.19;;;1.76;96.42
13800;BME280;6971;50.028;9.258;2023-03-05T19:11:50;98908.50;;;1.76;96.15
13800;BME280;6971;50.028;9.258;2023-03-05T19:16:50;98909.53;;;1.70;97.44
13800;BME280;6971;50.028;9.258;2023-03-05T19:21:52;98905.94;;;1.74;98.92
13800;BME280;6971;50.028;9.258;2023-03-05T19:26:54;98904.25;;;1.73;98.73
13800;BME280;6971;50.028;9.258;2023-03-05T19:31:58;98905.00;;;1.43;100.00
13800;BME280;6971;50.028;9.258;2023-03-05T19:36:58;98901.50;;;1.45;100.00
13800;BME280;6971;50.028;9.258;2023-03-05T19:41:59;98895.19;;;1.55;100.00
13800;BME280;6971;50.028;9.258;2023-03-05T19:46:59;98889.13;;;1.56;100.00
13800;BME280;6971;50.028;9.258;2023-03-05T19:52:00;98884.91;;;1.50;100.00
13800;BME280;6971;50.028;9.258;2023-03-05T19:57:00;98881.22;;;1.59;100.00
13800;BME280;6971;50.028;9.258;2023-03-05T20:02:00;98871.03;;;1.51;100.00
13800;BME280;6971;50.028;9.258;2023-03-05T20:07:01;98867.78;;;1.43;100.00
13800;BME280;6971;50.028;9.258;2023-03-05T20:12:03;98859.09;;;1.44;100.00
13800;BME280;6971;50.028;9.258;2023-03-05T20:17:05;98860.84;;;1.43;100.00
13800;BME280;6971;50.028;9.258;2023-03-05T20:22:06;98863.47;;;1.42;100.00
13800;BME280;6971;50.028;9.258;2023-03-05T20:27:06;98856.63;;;1.39;100.00
13800;BME280;6971;50.028;9.258;2023-03-05T20:32:07;98850.94;;;1.25;100.00
13800;BME280;6971;50.028;9.258;2023-03-05T20:37:07;98853.56;;;1.23;100.00
13800;BME280;6971;50.028;9.258;2023-03-05T20:42:07;98854.34;;;1.27;100.00
13800;BME280;6971;50.028;9.258;2023-03-05T20:47:08;98841.41;;;1.24;100.00
13800;BME280;6971;50.028;9.258;2023-03-05T20:52:44;98841.28;;;1.30;100.00
13800;BME280;6971;50.028;9.258;2023-03-05T20:57:44;98831.56;;;1.38;100.00
13800;BME280;6971;50.028;9.258;2023-03-05T21:02:45;98823.88;;;1.34;100.00
13800;BME280;6971;50.028;9.258;2023-03-05T21:07:45;98827.13;;;1.42;100.00
13800;BME280;6971;50.028;9.258;2023-03-05T21:12:47;98822.31;;;1.26;100.00
13800;BME280;6971;50.028;9.258;2023-03-05T21:17:48;98817.22;;;1.23;100.00
13800;BME280;6971;50.028;9.258;2023-03-05T21:22:49;98815.44;;;1.25;100.00
13800;BME280;6971;50.028;9.258;2023-03-05T21:28:10;98811.16;;;1.23;100.00
13800;BME280;6971;50.028;9.258;2023-03-05T21:33:14;98796.56;;;1.19;100.00
13800;BME280;6971;50.028;9.258;2023-03-05T21:38:15;98791.56;;;1.11;100.00
13800;BME280;6971;50.028;9.258;2023-03-05T21:43:18;98793.22;;;1.13;100.00
13800;BME280;6971;50.028;9.258;2023-03-05T21:48:20;98791.41;;;1.17;100.00
13800;BME280;6971;50.028;9.258;2023-03-05T21:53:21;98782.97;;;1.09;100.00
13800;BME280;6971;50.028;9.258;2023-03-05T21:58:22;98772.50;;;1.12;100.00
13800;BME280;6971;50.028;9.258;2023-03-05T22:03:22;98769.06;;;1.11;100.00
13800;BME280;6971;50.028;9.258;2023-03-05T22:08:23;98753.72;;;1.02;100.00
13800;BME280;6971;50.028;9.258;2023-03-05T22:13:23;98745.34;;;0.92;100.00
13800;BME280;6971;50.028;9.258;2023-03-05T22:18:26;98744.22;;;1.01;100.00
13800;BME280;6971;50.028;9.258;2023-03-05T22:23:30;98728.91;;;0.91;100.00
13800;BME280;6971;50.028;9.258;2023-03-05T22:28:34;98731.28;;;0.99;100.00
13800;BME280;6971;50.028;9.258;2023-03-05T22:33:35;98726.34;;;0.90;100.00
13800;BME280;6971;50.028;9.258;2023-03-05T22:38:36;98710.69;;;0.93;100.00
13800;BME280;6971;50.028;9.258;2023-03-05T22:43:37;98703.91;;;0.87;100.00
13800;BME280;6971;50.028;9.258;2023-03-05T22:48:37;98700.28;;;0.95;100.00
13800;BME280;6971;50.028;9.258;2023-03-05T22:53:38;98688.50;;;0.83;100.00
13800;BME280;6971;50.028;9.258;2023-03-05T22:58:39;98682.38;;;0.85;100.00
13800;BME280;6971;50.028;9.258;2023-03-05T23:03:40;98679.88;;;0.81;100.00
13800;BME280;6971;50.028;9.258;2023-03-05T23:08:41;98675.63;;;0.78;100.00
13800;BME280;6971;50.028;9.258;2023-03-05T23:13:41;98670.25;;;0.84;100.00
13800;BME280;6971;50.028;9.258;2023-03-05T23:18:41;98656.28;;;0.90;100.00
13800;BME280;6971;50.028;9.258;2023-03-05T23:23:42;98660.75;;;0.85;100.00
13800;BME280;6971;50.028;9.258;2023-03-05T23:28:42;98652.09;;;0.84;100.00
13800;BME280;6971;50.028;9.258;2023-03-05T23:33:43;98647.25;;;0.72;100.00
13800;BME280;6971;50.028;9.258;2023-03-05T23:38:43;98643.56;;;0.81;100.00
13800;BME280;6971;50.028;9.258;2023-03-05T23:43:43;98648.81;;;0.77;100.00
13800;BME280;6971;50.028;9.258;2023-03-05T23:48:44;98639.25;;;0.81;100.00
13800;BME280;6971;50.028;9.258;2023-03-05T23:53:44;98637.66;;;0.75;100.00
13800;BME280;6971;50.028;9.258;2023-03-05T23:58:44;98636.75;;;0.76;100.00
